createdAt,value
2019-01-09T00:00:46.534Z,92.75
2019-01-09T00:03:17.320Z,92.97
2019-01-09T00:05:48.156Z,93.59
2019-01-09T00:08:19.032Z,93.42
2019-01-09T00:10:49.759Z,92.98
2019-01-09T00:13:20.572Z,92.58
2019-01-09T00:15:51.288Z,92.53
2019-01-09T00:18:22.174Z,92.74
2019-01-09T00:20:53.012Z,92.79
2019-01-09T00:23:23.840Z,92.91
2019-01-09T00:25:54.594Z,93.19
2019-01-09T00:28:25.357Z,93.37
2019-01-09T00:30:56.112Z,94.15
2019-01-09T00:33:26.902Z,93.27
2019-01-09T00:35:57.662Z,93.03
2019-01-09T00:38:28.494Z,93.64
2019-01-09T00:40:59.275Z,93.34
2019-01-09T00:43:30.115Z,93.48
2019-01-09T00:46:00.987Z,93.82
2019-01-09T00:48:31.786Z,94.31
2019-01-09T00:51:02.546Z,94.53
2019-01-09T00:53:33.450Z,94.80
2019-01-09T00:56:04.519Z,94.34
2019-01-09T00:58:35.351Z,94.58
2019-01-09T01:01:06.107Z,94.40
2019-01-09T01:04:49.704Z,94.37
2019-01-09T01:08:18.667Z,94.31
2019-01-09T01:11:37.250Z,94.89
2019-01-09T01:14:54.474Z,94.99
2019-01-09T01:18:17.735Z,94.73
2019-01-09T01:21:06.563Z,94.90
2019-01-09T01:24:50.323Z,95.26
2019-01-09T01:28:38.899Z,95.46
2019-01-09T01:32:02.105Z,95.31
2019-01-09T01:35:16.330Z,95.58
2019-01-09T01:38:57.463Z,95.79
2019-01-09T01:42:22.151Z,96.05
2019-01-09T01:45:25.717Z,96.29
2019-01-09T01:49:04.072Z,95.76
2019-01-09T01:52:36.182Z,95.39
2019-01-09T01:56:03.300Z,95.58
2019-01-09T01:59:21.965Z,96.15
2019-01-09T02:02:34.876Z,95.84
2019-01-09T02:05:34.590Z,96.10
2019-01-09T02:08:49.303Z,96.20
2019-01-09T02:12:19.855Z,96.19
2019-01-09T02:15:56.263Z,96.36
2019-01-09T02:18:40.455Z,96.63
2019-01-09T02:22:34.958Z,96.93
2019-01-09T02:25:58.363Z,97.34
2019-01-09T02:29:16.122Z,97.14
2019-01-09T02:32:33.588Z,96.92
2019-01-09T02:35:04.649Z,96.55
2019-01-09T02:37:35.443Z,96.50
2019-01-09T02:40:06.531Z,96.82
2019-01-09T02:42:37.324Z,96.69
2019-01-09T02:45:08.353Z,96.63
2019-01-09T02:47:39.134Z,96.96
2019-01-09T02:50:10.787Z,97.60
2019-01-09T02:52:41.513Z,96.80
2019-01-09T02:55:12.338Z,97.01
2019-01-09T02:57:43.105Z,97.28
2019-01-09T03:00:14.756Z,97.23
2019-01-09T03:02:45.585Z,96.90
2019-01-09T03:05:16.311Z,97.51
2019-01-09T03:07:47.159Z,97.58
2019-01-09T03:10:17.905Z,97.73
2019-01-09T03:12:48.656Z,97.70
2019-01-09T03:15:19.385Z,97.77
2019-01-09T03:17:50.159Z,97.60
2019-01-09T03:20:20.867Z,97.68
2019-01-09T03:22:51.665Z,97.75
2019-01-09T03:25:22.491Z,97.99
2019-01-09T03:27:53.261Z,98.03
2019-01-09T03:30:24.078Z,98.14
2019-01-09T03:32:54.966Z,98.34
2019-01-09T03:35:25.727Z,98.39
2019-01-09T03:37:56.583Z,98.43
2019-01-09T03:40:27.362Z,98.37
2019-01-09T03:42:58.159Z,98.60
2019-01-09T03:45:28.938Z,98.72
2019-01-09T03:47:59.720Z,98.74
2019-01-09T03:50:30.554Z,98.46
2019-01-09T03:53:01.343Z,98.61
2019-01-09T03:55:32.138Z,98.35
2019-01-09T03:58:02.966Z,98.14
2019-01-09T04:00:33.824Z,98.41
2019-01-09T04:03:04.529Z,98.47
2019-01-09T04:05:35.366Z,98.32
2019-01-09T04:08:06.130Z,98.53
2019-01-09T04:10:36.940Z,98.56
2019-01-09T04:13:07.866Z,98.81
2019-01-09T04:15:38.798Z,98.77
2019-01-09T04:18:09.670Z,98.84
2019-01-09T04:20:40.479Z,98.63
2019-01-09T04:23:11.250Z,98.87
2019-01-09T04:25:42.086Z,98.90
2019-01-09T04:28:12.854Z,98.88
2019-01-09T04:30:43.706Z,98.87
2019-01-09T04:33:14.460Z,98.49
2019-01-09T04:35:45.249Z,98.44
2019-01-09T04:38:16.015Z,98.40
2019-01-09T04:40:47.742Z,98.60
2019-01-09T04:43:18.676Z,98.58
2019-01-09T04:45:49.501Z,98.54
2019-01-09T04:48:20.266Z,98.49
2019-01-09T04:50:58.678Z,98.41
2019-01-09T04:53:29.455Z,98.81
2019-01-09T04:56:00.372Z,99.02
2019-01-09T04:58:31.099Z,99.22
2019-01-09T05:01:01.964Z,98.91
2019-01-09T05:03:37.337Z,98.67
2019-01-09T05:06:08.223Z,98.67
2019-01-09T05:08:39.119Z,98.34
2019-01-09T05:11:10.292Z,98.38
2019-01-09T05:13:42.177Z,98.67
2019-01-09T05:16:15.921Z,98.51
2019-01-09T05:18:46.761Z,98.43
2019-01-09T05:21:17.664Z,98.40
2019-01-09T05:23:48.467Z,98.52
2019-01-09T05:26:19.275Z,98.28
2019-01-09T05:28:50.116Z,98.19
2019-01-09T05:31:20.901Z,98.03
2019-01-09T05:33:51.733Z,97.97
2019-01-09T05:36:22.596Z,98.01
2019-01-09T05:38:53.378Z,97.66
2019-01-09T05:41:24.174Z,97.72
2019-01-09T05:43:54.960Z,97.60
2019-01-09T05:46:25.758Z,97.51
2019-01-09T05:48:56.528Z,97.31
2019-01-09T05:51:27.372Z,96.78
2019-01-09T05:53:58.321Z,96.88
2019-01-09T05:56:29.899Z,96.77
2019-01-09T05:59:00.942Z,96.56
2019-01-09T06:01:31.830Z,96.70
2019-01-09T06:04:02.633Z,96.86
2019-01-09T06:06:36.381Z,96.75
2019-01-09T06:09:08.244Z,96.64
2019-01-09T06:11:39.064Z,97.21
2019-01-09T06:14:09.837Z,96.66
2019-01-09T06:16:40.687Z,96.55
2019-01-09T06:19:11.458Z,96.64
2019-01-09T06:21:42.281Z,96.79
2019-01-09T06:24:13.060Z,96.44
2019-01-09T06:26:43.808Z,96.32
2019-01-09T06:29:14.680Z,96.36
2019-01-09T06:31:45.505Z,95.96
2019-01-09T06:34:16.362Z,96.01
2019-01-09T06:36:47.117Z,96.02
2019-01-09T06:39:17.966Z,96.28
2019-01-09T06:41:48.796Z,95.95
2019-01-09T06:44:19.996Z,96.28
2019-01-09T06:46:50.823Z,96.61
2019-01-09T06:49:21.673Z,95.89
2019-01-09T06:51:52.454Z,95.96
2019-01-09T06:54:23.208Z,96.34
2019-01-09T06:56:53.974Z,96.24
2019-01-09T06:59:24.804Z,95.99
2019-01-09T07:01:55.565Z,96.21
2019-01-09T07:04:26.313Z,96.11
2019-01-09T07:06:57.187Z,95.81
2019-01-09T07:09:27.952Z,95.67
2019-01-09T07:11:58.723Z,96.05
2019-01-09T07:14:29.526Z,96.19
2019-01-09T07:17:00.249Z,96.23
2019-01-09T07:19:31.082Z,96.35
2019-01-09T07:22:01.877Z,96.45
2019-01-09T07:24:32.731Z,96.21
2019-01-09T07:27:06.557Z,96.28
2019-01-09T07:29:37.584Z,96.63
2019-01-09T07:32:08.396Z,96.46
2019-01-09T07:34:39.286Z,96.41
2019-01-09T07:37:10.055Z,96.39
2019-01-09T07:39:40.820Z,96.45
2019-01-09T07:42:11.657Z,96.84
2019-01-09T07:44:42.496Z,96.97
2019-01-09T07:47:13.260Z,97.35
2019-01-09T07:49:44.140Z,96.87
2019-01-09T07:52:15.168Z,97.19
2019-01-09T07:54:45.916Z,97.28
2019-01-09T07:57:16.688Z,97.15
2019-01-09T07:59:47.596Z,97.36
2019-01-09T08:02:18.443Z,97.37
2019-01-09T08:04:49.284Z,97.29
2019-01-09T08:07:20.058Z,97.46
2019-01-09T08:09:50.832Z,97.52
2019-01-09T08:12:21.666Z,97.45
2019-01-09T08:14:52.393Z,97.27
2019-01-09T08:17:23.191Z,97.51
2019-01-09T08:19:54.064Z,97.47
2019-01-09T08:22:24.828Z,97.29
2019-01-09T08:24:55.652Z,97.02
2019-01-09T08:27:26.472Z,97.00
2019-01-09T08:29:57.312Z,97.23
2019-01-09T08:32:28.238Z,97.00
2019-01-09T08:34:59.170Z,97.04
2019-01-09T08:37:29.932Z,97.11
2019-01-09T08:40:00.802Z,97.07
2019-01-09T08:42:32.017Z,97.16
2019-01-09T08:45:03.103Z,97.18
2019-01-09T08:47:33.890Z,97.32
2019-01-09T08:50:04.956Z,97.27
2019-01-09T08:52:35.738Z,97.21
2019-01-09T08:55:07.803Z,97.12
2019-01-09T08:57:38.605Z,97.16
2019-01-09T09:00:11.799Z,96.98
2019-01-09T09:02:42.631Z,97.05
2019-01-09T09:05:13.416Z,97.18
2019-01-09T09:07:44.779Z,97.38
2019-01-09T09:10:15.648Z,97.27
2019-01-09T09:12:46.517Z,97.45
2019-01-09T09:15:17.699Z,97.62
2019-01-09T09:17:48.511Z,97.73
2019-01-09T09:20:19.378Z,97.43
2019-01-09T09:22:50.213Z,97.25
2019-01-09T09:25:21.058Z,97.40
2019-01-09T09:27:51.823Z,97.43
2019-01-09T09:30:22.748Z,97.38
2019-01-09T09:32:53.511Z,97.07
2019-01-09T09:35:24.387Z,97.09
2019-01-09T09:37:55.245Z,97.08
2019-01-09T09:40:26.348Z,97.05
2019-01-09T09:42:57.195Z,96.80
2019-01-09T09:45:27.973Z,96.86
2019-01-09T09:47:58.852Z,96.57
2019-01-09T09:50:29.683Z,96.56
2019-01-09T09:53:00.512Z,96.68
2019-01-09T09:55:31.277Z,96.42
2019-01-09T09:58:05.889Z,96.17
2019-01-09T10:00:34.714Z,95.93
2019-01-09T10:03:05.648Z,95.89
2019-01-09T10:05:36.446Z,95.86
2019-01-09T10:08:10.119Z,95.68
2019-01-09T10:10:40.918Z,95.57
2019-01-09T10:13:11.675Z,95.66
2019-01-09T10:15:42.453Z,95.21
2019-01-09T10:18:13.248Z,95.02
2019-01-09T10:20:44.075Z,94.96
2019-01-09T10:23:16.927Z,94.72
2019-01-09T10:25:47.784Z,94.80
2019-01-09T10:28:20.015Z,94.73
2019-01-09T10:30:52.635Z,94.47
2019-01-09T10:33:23.496Z,94.33
2019-01-09T10:35:56.871Z,94.58
2019-01-09T10:38:27.662Z,94.58
2019-01-09T10:40:58.473Z,94.17
2019-01-09T10:43:29.247Z,94.39
2019-01-09T10:46:00.125Z,94.50
2019-01-09T10:48:32.477Z,94.42
2019-01-09T10:51:06.803Z,94.37
2019-01-09T10:53:37.644Z,94.30
2019-01-09T10:56:09.326Z,94.32
2019-01-09T10:58:42.146Z,94.11
2019-01-09T11:01:15.267Z,94.00
2019-01-09T11:03:46.202Z,94.51
2019-01-09T11:06:20.486Z,94.41
2019-01-09T11:08:51.255Z,93.81
2019-01-09T11:11:22.106Z,94.42
2019-01-09T11:13:52.959Z,94.62
2019-01-09T11:16:23.745Z,94.57
2019-01-09T11:18:54.692Z,94.49
2019-01-09T11:21:25.663Z,94.64
2019-01-09T11:23:56.412Z,94.46
2019-01-09T11:26:27.250Z,94.45
2019-01-09T11:28:59.826Z,94.41
2019-01-09T11:31:30.684Z,94.28
2019-01-09T11:34:01.522Z,94.56
2019-01-09T11:36:32.469Z,94.59
2019-01-09T11:39:03.462Z,94.72
2019-01-09T11:41:38.557Z,94.93
2019-01-09T11:44:11.700Z,94.47
2019-01-09T11:46:43.776Z,94.04
2019-01-09T11:49:15.780Z,94.05
2019-01-09T11:51:49.058Z,94.42
2019-01-09T11:54:22.454Z,94.10
2019-01-09T11:56:55.982Z,94.20
2019-01-09T11:59:26.914Z,94.52
2019-01-09T12:02:02.059Z,94.09
2019-01-09T12:04:33.040Z,94.31
2019-01-09T12:07:04.098Z,94.58
2019-01-09T12:09:34.890Z,94.79
2019-01-09T12:12:08.552Z,94.71
2019-01-09T12:14:39.354Z,94.95
2019-01-09T12:17:10.214Z,94.68
2019-01-09T12:19:41.070Z,95.19
2019-01-09T12:22:20.963Z,95.42
2019-01-09T12:24:54.057Z,95.77
2019-01-09T12:27:27.214Z,96.57
2019-01-09T12:30:03.233Z,95.94
2019-01-09T12:32:33.992Z,96.04
2019-01-09T12:35:09.032Z,96.32
2019-01-09T12:37:40.215Z,96.17
2019-01-09T12:40:16.902Z,95.92
2019-01-09T12:42:54.094Z,95.98
2019-01-09T12:45:28.422Z,96.38
2019-01-09T12:48:02.222Z,96.70
2019-01-09T12:50:35.418Z,95.89
2019-01-09T12:53:07.731Z,95.89
2019-01-09T12:55:42.622Z,95.05
2019-01-09T12:58:15.524Z,95.87
2019-01-09T13:00:46.396Z,96.49
2019-01-09T13:03:19.318Z,95.61
2019-01-09T13:05:53.060Z,95.23
2019-01-09T13:08:23.910Z,95.66
2019-01-09T13:10:54.686Z,95.62
2019-01-09T13:13:25.566Z,95.30
2019-01-09T13:15:56.356Z,95.25
2019-01-09T13:18:29.194Z,94.60
2019-01-09T13:21:01.284Z,94.94
2019-01-09T13:23:35.307Z,95.00
2019-01-09T13:26:06.233Z,94.65
2019-01-09T13:28:36.974Z,93.93
2019-01-09T13:31:07.766Z,93.80
2019-01-09T13:33:38.538Z,93.75
2019-01-09T13:36:09.770Z,93.59
2019-01-09T13:38:40.566Z,93.38
2019-01-09T13:41:11.386Z,93.78
2019-01-09T13:43:42.182Z,94.41
2019-01-09T13:46:12.993Z,93.87
2019-01-09T13:48:43.856Z,94.22
2019-01-09T13:51:14.704Z,94.08
2019-01-09T13:53:45.473Z,94.24
2019-01-09T13:56:16.252Z,95.31
2019-01-09T13:58:47.145Z,95.11
2019-01-09T14:01:17.923Z,96.07
2019-01-09T14:03:48.756Z,96.02
2019-01-09T14:06:19.538Z,96.46
2019-01-09T14:08:50.407Z,96.99
2019-01-09T14:11:21.165Z,97.37
2019-01-09T14:13:51.973Z,97.45
2019-01-09T14:16:22.790Z,96.57
2019-01-09T14:18:55.298Z,96.11
2019-01-09T14:21:26.202Z,97.22
2019-01-09T14:23:57.010Z,98.10
2019-01-09T14:26:27.850Z,97.85
2019-01-09T14:28:58.665Z,97.83
2019-01-09T14:31:29.502Z,98.33
2019-01-09T14:34:00.489Z,98.46
2019-01-09T14:36:31.322Z,99.03
2019-01-09T14:39:02.073Z,98.85
2019-01-09T14:41:32.893Z,99.42
2019-01-09T14:44:03.667Z,99.13
2019-01-09T14:46:34.455Z,98.39
2019-01-09T14:49:05.247Z,98.67
2019-01-09T14:51:43.140Z,98.60
2019-01-09T14:54:08.536Z,98.18
2019-01-09T14:56:39.340Z,98.89
2019-01-09T14:59:10.121Z,98.24
2019-01-09T15:01:40.954Z,98.33
2019-01-09T15:04:11.854Z,98.37
2019-01-09T15:06:42.717Z,98.19
2019-01-09T15:09:13.476Z,98.34
2019-01-09T15:11:44.782Z,98.68
2019-01-09T15:14:15.573Z,98.52
2019-01-09T15:16:46.636Z,98.97
2019-01-09T15:19:17.552Z,98.48
2019-01-09T15:21:48.395Z,98.91
2019-01-09T15:25:21.832Z,99.15
2019-01-09T15:27:54.941Z,98.52
2019-01-09T15:30:32.816Z,98.23
2019-01-09T15:33:03.904Z,98.47
2019-01-09T15:35:34.827Z,98.62
2019-01-09T15:38:06.128Z,98.05
2019-01-09T15:40:37.263Z,98.54
2019-01-09T15:43:08.521Z,98.81
2019-01-09T15:45:39.473Z,98.17
2019-01-09T15:48:14.807Z,98.98
2019-01-09T15:50:47.006Z,98.60
2019-01-09T15:53:20.990Z,98.59
2019-01-09T15:55:54.733Z,98.19
2019-01-09T15:58:35.704Z,98.61
2019-01-09T16:01:21.578Z,98.90
2019-01-09T16:03:59.931Z,98.85
2019-01-09T16:39:14.016Z,99.34
2019-01-09T16:41:45.580Z,99.34
2019-01-09T16:44:16.765Z,99.72
2019-01-09T16:46:47.932Z,99.11
2019-01-09T16:49:27.649Z,99.11
2019-01-09T16:51:52.308Z,99.77
2019-01-09T16:54:23.501Z,99.50
2019-01-09T16:56:54.344Z,99.51
2019-01-09T16:59:25.220Z,99.60
2019-01-09T17:01:56.038Z,100.00
2019-01-09T17:04:28.528Z,99.67
2019-01-09T17:06:59.487Z,99.82
2019-01-09T17:09:30.806Z,99.07
2019-01-09T17:12:02.510Z,99.54
2019-01-09T17:14:33.412Z,99.82
2019-01-09T17:17:04.260Z,99.92
2019-01-09T17:19:35.095Z,99.98
2019-01-09T17:22:06.197Z,100.00
2019-01-09T17:24:37.118Z,99.80
2019-01-09T17:27:08.256Z,99.99
2019-01-09T17:29:39.288Z,99.86
2019-01-09T17:32:10.151Z,100.00
2019-01-09T17:34:40.993Z,99.03
2019-01-09T17:37:12.185Z,99.01
2019-01-09T17:39:43.264Z,99.34
2019-01-09T17:42:14.429Z,99.38
2019-01-09T17:44:59.104Z,99.18
2019-01-09T17:47:32.844Z,99.48
2019-01-09T17:50:03.993Z,99.96
2019-01-09T17:52:35.634Z,99.18
2019-01-09T17:55:13.577Z,98.72
2019-01-09T17:57:44.487Z,97.94
2019-01-09T18:00:23.115Z,98.54
2019-01-09T18:02:54.029Z,98.46
2019-01-09T18:05:25.741Z,98.29
2019-01-09T18:07:57.156Z,98.32
2019-01-09T18:10:28.917Z,98.95
2019-01-09T18:13:00.777Z,98.32
2019-01-09T18:15:31.755Z,97.96
2019-01-09T18:18:02.791Z,98.34
2019-01-09T18:20:33.625Z,99.28
2019-01-09T18:23:04.759Z,98.41
2019-01-09T18:25:35.657Z,98.00
2019-01-09T18:28:06.623Z,98.67
2019-01-09T18:31:26.479Z,98.30
2019-01-09T18:34:43.999Z,98.66
2019-01-09T18:38:22.526Z,98.90
2019-01-09T18:41:30.901Z,99.03
2019-01-09T18:44:56.146Z,99.07
2019-01-09T19:04:27.179Z,99.98
2019-01-09T19:06:34.960Z,99.08
2019-01-09T19:09:18.195Z,99.56
2019-01-09T19:11:50.589Z,99.62
2019-01-09T19:14:21.747Z,99.90
2019-01-09T19:16:52.744Z,99.99
2019-01-09T19:19:23.746Z,99.96
2019-01-09T19:21:54.803Z,100.00
2019-01-09T19:24:25.730Z,100.00
2019-01-09T19:26:56.735Z,100.00
2019-01-09T19:29:27.721Z,99.82
2019-01-09T19:31:58.659Z,99.12
2019-01-09T19:34:29.645Z,99.50
2019-01-09T19:37:03.873Z,99.43
2019-01-09T19:39:34.809Z,99.54
2019-01-09T19:42:05.809Z,98.79
2019-01-09T19:44:36.831Z,98.80
2019-01-09T19:47:16.811Z,98.36
2019-01-09T19:49:47.961Z,97.71
2019-01-09T19:52:18.922Z,97.69
2019-01-09T19:54:50.286Z,98.38
2019-01-09T19:57:21.620Z,98.41
2019-01-09T19:59:52.603Z,98.07
2019-01-09T20:02:23.467Z,98.21
2019-01-09T20:04:54.579Z,97.74
2019-01-09T20:07:25.793Z,98.29
2019-01-09T20:09:56.796Z,98.38
2019-01-09T20:12:38.063Z,98.44
2019-01-09T20:15:11.955Z,98.46
2019-01-09T20:17:45.766Z,98.58
2019-01-09T20:20:22.207Z,98.62
2019-01-09T20:22:59.904Z,98.84
2019-01-09T20:25:31.163Z,98.74
2019-01-09T20:28:05.859Z,98.61
2019-01-09T20:30:38.451Z,98.53
2019-01-09T20:33:09.380Z,98.45
2019-01-09T20:35:40.392Z,98.33
2019-01-09T20:38:11.408Z,98.34
2019-01-09T20:40:42.286Z,98.51
2019-01-09T20:43:13.280Z,98.50
2019-01-09T20:45:47.311Z,98.74
2019-01-09T20:48:18.432Z,97.96
2019-01-09T20:50:49.513Z,96.89
2019-01-09T20:53:20.547Z,97.11
2019-01-09T20:55:51.656Z,96.42
2019-01-09T20:58:22.696Z,96.46
2019-01-09T21:04:05.625Z,96.57
2019-01-09T21:06:12.747Z,97.05
2019-01-09T21:09:09.831Z,97.51
2019-01-09T21:11:24.298Z,97.35
2019-01-09T21:13:57.345Z,97.24
2019-01-09T21:16:31.674Z,97.28
2019-01-09T21:19:09.645Z,97.58
2019-01-09T21:22:11.142Z,97.98
2019-01-09T21:27:45.803Z,97.94
2019-01-09T21:30:13.506Z,98.15
2019-01-09T21:32:37.901Z,98.49
2019-01-09T21:35:11.033Z,98.40
2019-01-09T21:37:44.802Z,98.84
2019-01-09T21:40:29.568Z,98.84
2019-01-09T21:43:07.652Z,98.67
2019-01-09T21:45:40.414Z,98.97
2019-01-09T21:48:13.033Z,98.10
2019-01-09T21:50:56.068Z,97.47
2019-01-09T21:53:18.382Z,97.68
2019-01-09T21:55:49.205Z,98.23
2019-01-09T21:58:20.223Z,99.24
2019-01-09T22:00:51.079Z,99.70
2019-01-09T22:03:22.026Z,100.00
2019-01-09T22:05:52.920Z,100.00
2019-01-09T22:08:23.834Z,100.00
2019-01-09T22:10:54.735Z,100.00
2019-01-09T22:13:25.642Z,100.00
2019-01-09T22:15:56.464Z,98.52
2019-01-09T22:18:27.326Z,98.60
2019-01-09T22:20:58.210Z,99.07
2019-01-09T22:23:29.081Z,98.93
2019-01-09T22:25:59.922Z,99.28
2019-01-09T22:28:30.733Z,99.41
2019-01-09T22:31:01.558Z,99.53
2019-01-09T22:33:32.384Z,99.13
2019-01-09T22:36:03.192Z,99.61
2019-01-09T22:38:33.945Z,100.00
2019-01-09T22:41:04.885Z,100.00
2019-01-09T22:43:35.703Z,100.00
2019-01-09T22:46:06.592Z,100.00
2019-01-09T22:48:37.389Z,100.00
2019-01-09T22:51:08.223Z,99.63
2019-01-09T22:53:39.171Z,99.52
2019-01-09T22:56:10.041Z,99.35
2019-01-09T22:58:40.845Z,99.88
2019-01-09T23:01:24.928Z,100.00
2019-01-09T23:03:57.269Z,100.00
2019-01-09T23:06:28.086Z,100.00
2019-01-09T23:09:02.007Z,100.00
2019-01-09T23:11:32.843Z,100.00
2019-01-09T23:14:03.725Z,100.00
2019-01-09T23:16:34.633Z,100.00
2019-01-09T23:19:05.656Z,100.00
2019-01-09T23:21:36.637Z,100.00
2019-01-09T23:24:07.505Z,100.00
2019-01-09T23:26:38.380Z,100.00
2019-01-09T23:29:09.209Z,100.00
2019-01-09T23:31:40.157Z,100.00
2019-01-09T23:34:10.948Z,100.00
2019-01-09T23:36:41.739Z,100.00
2019-01-09T23:39:12.901Z,100.00
2019-01-09T23:41:43.749Z,100.00
2019-01-09T23:44:14.582Z,100.00
2019-01-09T23:46:45.433Z,100.00
2019-01-09T23:49:16.253Z,100.00
2019-01-09T23:51:47.130Z,100.00
2019-01-09T23:54:18.145Z,100.00
2019-01-09T23:56:48.991Z,100.00
2019-01-09T23:59:19.849Z,100.00
